createdAt,value
2023-05-14T00:00:30.156Z,6.10
2023-05-14T00:02:58.609Z,5.87
2023-05-14T00:05:27.086Z,5.22
2023-05-14T00:07:55.324Z,6.23
2023-05-14T00:10:23.796Z,6.13
2023-05-14T00:12:52.678Z,5.97
2023-05-14T00:15:21.053Z,5.77
2023-05-14T00:17:50.666Z,5.63
2023-05-14T00:20:18.961Z,6.33
2023-05-14T00:22:47.112Z,6.47
2023-05-14T00:25:15.384Z,6.27
2023-05-14T00:27:43.641Z,6.50
2023-05-14T00:30:12.842Z,5.37
2023-05-14T00:32:41.231Z,5.70
2023-05-14T00:35:11.293Z,5.30
2023-05-14T00:37:40.268Z,6.90
2023-05-14T00:40:11.767Z,6.20
2023-05-14T00:42:40.644Z,6.20
2023-05-14T00:45:09.915Z,4.90
2023-05-14T00:47:39.435Z,6.72
2023-05-14T00:50:08.795Z,5.72
2023-05-14T00:52:39.276Z,5.72
2023-05-14T00:55:09.068Z,5.33
2023-05-14T00:57:38.136Z,5.40
2023-05-14T01:00:07.911Z,4.73
2023-05-14T01:02:36.478Z,6.50
2023-05-14T01:05:05.398Z,5.15
2023-05-14T01:07:45.984Z,5.30
2023-05-14T01:10:18.635Z,4.80
2023-05-14T01:12:53.567Z,4.30
2023-05-14T01:15:27.827Z,4.10
2023-05-14T01:18:00.448Z,4.37
2023-05-14T01:20:28.860Z,4.88
2023-05-14T01:22:58.578Z,4.15
2023-05-14T01:25:27.393Z,4.82
2023-05-14T01:28:02.350Z,4.60
2023-05-14T01:30:35.376Z,4.45
2023-05-14T01:33:07.392Z,4.10
2023-05-14T01:35:35.810Z,3.80
2023-05-14T01:38:08.821Z,4.38
2023-05-14T01:40:38.252Z,4.10
2023-05-14T01:43:07.178Z,5.10
2023-05-14T01:45:37.833Z,3.70
2023-05-14T01:48:06.709Z,6.40
2023-05-14T01:50:35.412Z,4.75
2023-05-14T01:53:06.467Z,6.05
2023-05-14T01:55:34.854Z,6.78
2023-05-14T01:58:03.246Z,5.32
2023-05-14T02:00:31.642Z,3.85
2023-05-14T02:03:00.130Z,3.15
2023-05-14T02:05:28.512Z,3.42
2023-05-14T02:07:57.333Z,3.92
2023-05-14T02:10:27.204Z,4.18
2023-05-14T02:12:57.233Z,4.75
2023-05-14T02:15:25.435Z,4.72
2023-05-14T02:17:53.647Z,6.03
2023-05-14T02:20:22.087Z,3.88
2023-05-14T02:22:51.223Z,5.00
2023-05-14T02:25:19.419Z,4.10
2023-05-14T02:27:49.549Z,4.50
2023-05-14T02:30:17.843Z,4.00
2023-05-14T02:32:46.270Z,4.90
2023-05-14T02:35:14.757Z,4.30
2023-05-14T02:37:43.071Z,5.15
2023-05-14T02:40:12.331Z,4.93
2023-05-14T02:42:40.626Z,3.90
2023-05-14T02:45:11.061Z,4.57
2023-05-14T02:47:39.420Z,4.60
2023-05-14T02:50:09.064Z,4.60
2023-05-14T02:52:37.325Z,3.80
2023-05-14T02:55:06.856Z,4.40
2023-05-14T02:57:35.001Z,4.15
2023-05-14T03:00:04.437Z,5.50
2023-05-14T03:02:35.811Z,4.80
2023-05-14T03:05:05.162Z,4.88
2023-05-14T03:07:33.481Z,4.63
2023-05-14T03:10:01.854Z,4.03
2023-05-14T03:12:30.519Z,4.25
2023-05-14T03:14:58.769Z,4.65
2023-05-14T03:17:27.127Z,4.20
2023-05-14T03:19:56.823Z,4.70
2023-05-14T03:22:25.121Z,4.45
2023-05-14T03:24:53.841Z,5.68
2023-05-14T03:27:21.989Z,5.15
2023-05-14T03:29:50.567Z,4.30
2023-05-14T03:32:19.291Z,6.20
2023-05-14T03:34:48.055Z,5.15
2023-05-14T03:37:17.814Z,4.70
2023-05-14T03:39:46.114Z,6.03
2023-05-14T03:42:14.368Z,6.47
2023-05-14T03:44:42.674Z,5.63
2023-05-14T03:47:10.966Z,5.07
2023-05-14T03:49:39.448Z,7.00
2023-05-14T03:52:10.432Z,6.75
2023-05-14T03:54:41.409Z,4.65
2023-05-14T03:57:09.592Z,5.00
2023-05-14T03:59:37.874Z,5.45
2023-05-14T04:02:06.183Z,5.30
2023-05-14T04:04:34.462Z,5.43
2023-05-14T04:07:03.937Z,5.50
2023-05-14T04:09:32.205Z,4.93
2023-05-14T04:12:02.007Z,8.40
2023-05-14T04:14:31.103Z,6.07
2023-05-14T04:17:00.364Z,5.47
2023-05-14T04:19:28.859Z,4.80
2023-05-14T04:21:57.267Z,6.88
2023-05-14T04:24:25.668Z,5.72
2023-05-14T04:26:53.922Z,7.30
2023-05-14T04:29:23.693Z,4.88
2023-05-14T04:31:52.092Z,6.10
2023-05-14T04:34:20.435Z,8.88
2023-05-14T04:36:48.693Z,8.40
2023-05-14T04:39:17.275Z,7.88
2023-05-14T04:41:45.545Z,6.40
2023-05-14T04:44:14.107Z,5.57
2023-05-14T04:46:43.708Z,7.78
2023-05-14T04:49:12.182Z,7.63
2023-05-14T04:51:40.663Z,9.18
2023-05-14T04:54:08.904Z,11.40
2023-05-14T04:56:37.105Z,7.60
2023-05-14T04:59:05.413Z,6.35
2023-05-14T05:01:33.771Z,9.20
2023-05-14T05:04:03.448Z,8.00
2023-05-14T05:06:32.429Z,6.70
2023-05-14T05:09:02.073Z,7.53
2023-05-14T05:11:30.648Z,9.07
2023-05-14T05:13:58.862Z,7.22
2023-05-14T05:16:27.333Z,6.03
2023-05-14T05:18:55.757Z,10.70
2023-05-14T05:21:25.406Z,5.78
2023-05-14T05:23:53.509Z,7.70
2023-05-14T05:26:22.191Z,6.82
2023-05-14T05:28:50.379Z,6.38
2023-05-14T05:31:19.979Z,7.40
2023-05-14T05:33:48.417Z,14.38
2023-05-14T05:36:16.728Z,9.02
2023-05-14T05:38:46.395Z,8.50
2023-05-14T05:41:14.619Z,8.45
2023-05-14T05:43:42.787Z,10.38
2023-05-14T05:46:11.102Z,13.50
2023-05-14T05:48:39.335Z,8.73
2023-05-14T05:51:07.710Z,11.55
2023-05-14T05:53:35.905Z,10.18
2023-05-14T05:56:06.419Z,10.93
2023-05-14T05:58:34.814Z,9.27
2023-05-14T06:01:03.002Z,8.90
2023-05-14T06:03:31.248Z,9.27
2023-05-14T06:05:59.397Z,9.15
2023-05-14T06:08:27.629Z,10.93
2023-05-14T06:10:55.777Z,10.77
2023-05-14T06:13:25.401Z,9.68
2023-05-14T06:15:53.678Z,11.70
2023-05-14T06:18:22.013Z,10.98
2023-05-14T06:20:50.303Z,10.43
2023-05-14T06:23:18.480Z,11.18
2023-05-14T06:25:47.525Z,10.60
2023-05-14T06:28:16.677Z,12.93
2023-05-14T06:30:46.278Z,13.38
2023-05-14T06:33:15.057Z,14.05
2023-05-14T06:35:43.261Z,11.85
2023-05-14T06:38:11.511Z,14.35
2023-05-14T06:40:39.732Z,16.40
2023-05-14T06:43:07.935Z,18.35
2023-05-14T06:45:36.166Z,15.77
2023-05-14T06:48:06.171Z,12.43
2023-05-14T06:50:34.408Z,12.20
2023-05-14T06:53:02.767Z,19.88
2023-05-14T06:55:30.928Z,14.45
2023-05-14T06:57:59.217Z,17.13
2023-05-14T07:00:27.785Z,17.27
2023-05-14T07:02:56.162Z,17.05
2023-05-14T07:05:26.240Z,24.13
2023-05-14T07:07:54.529Z,18.63
2023-05-14T07:10:23.157Z,17.52
2023-05-14T07:12:51.663Z,19.20
2023-05-14T07:15:20.217Z,20.40
2023-05-14T07:17:48.475Z,21.63
2023-05-14T07:20:16.683Z,19.05
2023-05-14T07:22:46.333Z,19.70
2023-05-14T07:25:14.581Z,17.25
2023-05-14T07:27:42.856Z,17.80
2023-05-14T07:30:11.557Z,18.50
2023-05-14T07:32:39.986Z,15.75
2023-05-14T07:35:09.097Z,16.83
2023-05-14T07:37:37.359Z,17.45
2023-05-14T07:40:08.583Z,17.83
2023-05-14T07:42:37.600Z,18.77
2023-05-14T07:45:07.411Z,19.65
2023-05-14T07:47:35.781Z,20.48
2023-05-14T07:50:04.695Z,18.20
2023-05-14T07:52:33.981Z,20.92
2023-05-14T07:55:02.418Z,16.40
2023-05-14T07:57:32.035Z,17.95
2023-05-14T08:00:00.303Z,18.17
2023-05-14T08:02:28.716Z,17.85
2023-05-14T08:04:57.033Z,16.80
2023-05-14T08:07:25.624Z,16.55
2023-05-14T08:09:53.861Z,18.00
2023-05-14T08:12:22.260Z,16.55
2023-05-14T08:14:52.052Z,16.85
2023-05-14T08:17:20.474Z,15.68
2023-05-14T08:19:49.601Z,17.55
2023-05-14T08:22:17.816Z,16.38
2023-05-14T08:24:46.103Z,18.77
2023-05-14T08:27:14.468Z,18.27
2023-05-14T08:29:42.782Z,17.73
2023-05-14T08:32:22.766Z,18.35
2023-05-14T08:34:52.535Z,19.33
2023-05-14T08:37:20.960Z,19.83
2023-05-14T08:39:49.246Z,18.80
2023-05-14T08:42:22.883Z,19.50
2023-05-14T08:44:56.988Z,21.35
2023-05-14T08:47:26.759Z,21.23
2023-05-14T08:50:02.404Z,22.98
2023-05-14T08:52:31.100Z,20.13
2023-05-14T08:55:01.436Z,20.63
2023-05-14T08:57:31.261Z,18.25
2023-05-14T08:59:59.838Z,16.80
2023-05-14T09:02:31.674Z,17.88
2023-05-14T09:05:01.441Z,18.17
2023-05-14T09:07:29.787Z,19.02
2023-05-14T09:09:58.125Z,21.13
2023-05-14T09:12:26.582Z,18.38
2023-05-14T09:14:55.116Z,19.90
2023-05-14T09:17:24.418Z,20.95
2023-05-14T09:19:54.281Z,20.40
2023-05-14T09:22:23.306Z,19.35
2023-05-14T09:25:05.135Z,22.00
2023-05-14T09:27:34.355Z,20.58
2023-05-14T09:30:10.325Z,20.27
2023-05-14T09:32:40.318Z,21.25
2023-05-14T09:35:17.339Z,22.73
2023-05-14T09:37:48.211Z,20.63
2023-05-14T09:40:18.338Z,19.30
2023-05-14T09:42:48.232Z,20.52
2023-05-14T09:45:17.164Z,23.80
2023-05-14T09:47:46.140Z,21.30
2023-05-14T09:50:16.071Z,22.45
2023-05-14T09:52:44.350Z,22.38
2023-05-14T09:55:12.680Z,22.92
2023-05-14T09:57:40.980Z,22.05
2023-05-14T10:00:12.790Z,22.35
2023-05-14T10:02:43.991Z,23.27
2023-05-14T10:05:13.587Z,24.20
2023-05-14T10:07:47.926Z,23.30
2023-05-14T10:10:19.904Z,22.33
2023-05-14T10:12:54.164Z,21.85
2023-05-14T10:15:28.320Z,21.55
2023-05-14T10:18:00.071Z,21.35
2023-05-14T10:20:28.923Z,20.65
2023-05-14T10:22:59.607Z,21.13
2023-05-14T10:25:28.810Z,22.50
2023-05-14T10:27:57.545Z,24.52
2023-05-14T10:30:25.944Z,25.77
2023-05-14T10:33:08.434Z,25.20
2023-05-14T10:35:53.536Z,27.42
2023-05-14T10:38:27.330Z,26.98
2023-05-14T10:41:01.475Z,26.95
2023-05-14T10:43:31.279Z,25.88
2023-05-14T10:46:01.150Z,26.92
2023-05-14T10:48:30.033Z,25.65
2023-05-14T10:50:58.963Z,26.20
2023-05-14T10:53:36.637Z,23.05
2023-05-14T10:56:06.012Z,23.25
2023-05-14T10:58:37.158Z,24.83
2023-05-14T11:01:07.346Z,25.77
2023-05-14T11:03:42.216Z,24.90
2023-05-14T11:06:13.115Z,24.80
2023-05-14T11:08:43.997Z,24.23
2023-05-14T11:11:12.409Z,23.17
2023-05-14T11:13:40.663Z,23.02
2023-05-14T11:16:21.887Z,25.15
2023-05-14T11:18:55.913Z,25.63
2023-05-14T11:21:24.239Z,24.15
2023-05-14T11:23:56.229Z,24.52
2023-05-14T11:26:25.964Z,24.40
2023-05-14T11:28:54.277Z,24.90
2023-05-14T11:31:24.196Z,25.23
2023-05-14T11:33:53.832Z,24.20
2023-05-14T11:36:22.054Z,23.40
2023-05-14T11:38:52.333Z,25.55
2023-05-14T11:41:23.069Z,26.25
2023-05-14T11:43:51.864Z,24.52
2023-05-14T11:46:20.702Z,24.15
2023-05-14T11:48:49.219Z,25.88
2023-05-14T11:51:17.433Z,24.50
2023-05-14T11:53:47.150Z,24.63
2023-05-14T11:56:16.029Z,26.23
2023-05-14T11:58:51.008Z,26.00
2023-05-14T12:01:19.568Z,26.67
2023-05-14T12:03:47.941Z,24.70
2023-05-14T12:06:16.278Z,24.88
2023-05-14T12:08:44.473Z,26.23
2023-05-14T12:11:12.706Z,25.05
2023-05-14T12:13:40.961Z,23.40
2023-05-14T12:16:10.600Z,21.75
2023-05-14T12:18:39.103Z,20.55
2023-05-14T12:21:08.721Z,22.27
2023-05-14T12:23:39.658Z,24.15
2023-05-14T12:26:09.817Z,22.77
2023-05-14T12:28:43.478Z,22.02
2023-05-14T12:31:13.438Z,19.27
2023-05-14T12:33:41.776Z,19.27
2023-05-14T12:36:21.334Z,18.65
2023-05-14T12:38:50.636Z,15.20
2023-05-14T12:41:19.352Z,17.05
2023-05-14T12:43:49.262Z,16.27
2023-05-14T12:46:19.125Z,17.20
2023-05-14T12:48:47.395Z,18.25
2023-05-14T12:51:15.743Z,19.73
2023-05-14T12:53:44.042Z,18.42
2023-05-14T12:56:12.778Z,16.95
2023-05-14T12:58:41.168Z,16.70
2023-05-14T13:01:09.706Z,19.98
2023-05-14T13:03:39.511Z,19.27
2023-05-14T13:06:08.093Z,18.33
2023-05-14T13:08:36.733Z,17.80
2023-05-14T13:11:05.181Z,18.20
2023-05-14T13:13:33.458Z,18.02
2023-05-14T13:16:01.885Z,18.75
2023-05-14T13:18:30.374Z,19.35
2023-05-14T13:21:00.152Z,19.85
2023-05-14T13:23:28.647Z,20.90
2023-05-14T13:25:56.950Z,19.00
2023-05-14T13:28:25.348Z,19.63
2023-05-14T13:31:10.314Z,20.45
2023-05-14T13:33:41.769Z,18.80
2023-05-14T13:36:12.864Z,20.75
2023-05-14T13:38:41.272Z,19.75
2023-05-14T13:41:10.022Z,21.85
2023-05-14T13:43:38.830Z,21.63
2023-05-14T13:46:07.216Z,21.27
2023-05-14T13:48:36.452Z,21.50
2023-05-14T13:51:04.905Z,23.50
2023-05-14T13:53:34.454Z,22.70
2023-05-14T13:56:02.758Z,24.05
2023-05-14T13:58:31.248Z,22.55
2023-05-14T14:00:59.522Z,23.40
2023-05-14T14:03:31.073Z,23.42
2023-05-14T14:05:59.260Z,25.77
2023-05-14T14:08:27.594Z,25.27
2023-05-14T14:10:57.390Z,23.45
2023-05-14T14:13:26.154Z,24.70
2023-05-14T14:15:54.572Z,25.33
2023-05-14T14:18:22.814Z,23.88
2023-05-14T14:20:51.290Z,23.52
2023-05-14T14:23:19.671Z,27.77
2023-05-14T14:25:48.190Z,25.05
2023-05-14T14:28:17.745Z,25.52
2023-05-14T14:30:46.045Z,26.42
2023-05-14T14:33:14.289Z,25.10
2023-05-14T14:35:42.598Z,24.58
2023-05-14T14:38:10.803Z,25.63
2023-05-14T14:40:39.096Z,25.88
2023-05-14T14:43:07.375Z,25.73
2023-05-14T14:45:37.149Z,31.83
2023-05-14T14:48:23.855Z,31.38
2023-05-14T14:50:52.847Z,30.40
2023-05-14T14:53:21.071Z,28.48
2023-05-14T14:55:49.468Z,24.63
2023-05-14T14:58:17.873Z,25.02
2023-05-14T15:00:47.728Z,25.92
2023-05-14T15:03:16.381Z,26.20
2023-05-14T15:05:44.821Z,26.90
2023-05-14T15:08:13.118Z,27.92
2023-05-14T15:10:41.755Z,25.77
2023-05-14T15:13:11.340Z,26.33
2023-05-14T15:15:39.689Z,28.40
2023-05-14T15:18:09.358Z,28.98
2023-05-14T15:20:38.434Z,29.45
2023-05-14T15:23:07.300Z,27.65
2023-05-14T15:25:35.554Z,28.30
2023-05-14T15:28:03.917Z,28.60
2023-05-14T15:30:32.300Z,29.08
2023-05-14T15:33:00.633Z,30.33
2023-05-14T15:35:30.415Z,28.23
2023-05-14T15:37:58.872Z,30.45
2023-05-14T15:40:28.443Z,29.42
2023-05-14T15:42:56.562Z,28.45
2023-05-14T15:45:24.894Z,27.33
2023-05-14T15:47:53.092Z,28.98
2023-05-14T15:50:21.882Z,32.67
2023-05-14T15:52:51.653Z,29.52
2023-05-14T15:55:20.102Z,28.67
2023-05-14T15:57:48.438Z,30.55
2023-05-14T16:00:17.618Z,31.75
2023-05-14T16:02:46.013Z,29.73
2023-05-14T16:05:15.088Z,31.05
2023-05-14T16:07:43.726Z,31.38
2023-05-14T16:10:13.575Z,27.80
2023-05-14T16:12:41.811Z,32.53
2023-05-14T16:15:11.503Z,27.95
2023-05-14T16:17:40.083Z,26.73
2023-05-14T16:20:09.922Z,26.33
2023-05-14T16:22:38.269Z,23.80
2023-05-14T16:25:07.097Z,25.48
2023-05-14T16:27:37.109Z,22.33
2023-05-14T16:30:06.541Z,22.98
2023-05-14T16:32:34.879Z,21.50
2023-05-14T16:35:03.229Z,21.52
2023-05-14T16:37:33.019Z,20.50
2023-05-14T16:40:01.282Z,21.55
2023-05-14T16:42:30.035Z,19.75
2023-05-14T16:44:59.726Z,20.17
2023-05-14T16:47:28.035Z,20.08
2023-05-14T16:49:56.234Z,20.98
2023-05-14T16:52:24.520Z,20.65
2023-05-14T16:54:52.831Z,20.80
2023-05-14T16:57:21.076Z,23.92
2023-05-14T16:59:49.378Z,22.83
2023-05-14T17:02:19.030Z,20.70
2023-05-14T17:04:47.292Z,20.80
2023-05-14T17:07:15.719Z,19.30
2023-05-14T17:09:43.872Z,20.77
2023-05-14T17:12:13.595Z,18.55
2023-05-14T17:14:41.969Z,19.13
2023-05-14T17:17:10.267Z,20.02
2023-05-14T17:19:40.151Z,19.85
2023-05-14T17:22:08.456Z,18.98
2023-05-14T17:24:38.946Z,19.67
2023-05-14T17:27:07.569Z,20.05
2023-05-14T17:29:35.793Z,19.40
2023-05-14T17:32:04.937Z,17.65
2023-05-14T17:34:33.285Z,17.90
2023-05-14T17:37:02.943Z,14.65
2023-05-14T17:39:31.140Z,15.38
2023-05-14T17:41:59.570Z,15.38
2023-05-14T17:44:27.775Z,21.50
2023-05-14T17:46:56.470Z,27.80
2023-05-14T17:49:24.841Z,22.45
2023-05-14T17:51:53.246Z,15.30
2023-05-14T17:54:22.870Z,19.48
2023-05-14T17:56:51.993Z,16.15
2023-05-14T17:59:21.163Z,18.33
2023-05-14T18:01:50.160Z,54.75
2023-05-14T18:04:18.508Z,53.60
2023-05-14T18:06:46.993Z,47.42
2023-05-14T18:09:15.415Z,21.40
2023-05-14T18:11:45.585Z,18.77
2023-05-14T18:14:13.983Z,18.80
2023-05-14T18:16:42.265Z,18.15
2023-05-14T18:19:11.399Z,17.42
2023-05-14T18:21:39.785Z,17.20
2023-05-14T18:24:08.840Z,15.20
2023-05-14T18:26:37.590Z,14.50
2023-05-14T18:29:07.182Z,18.33
2023-05-14T18:31:35.453Z,16.75
2023-05-14T18:34:03.612Z,16.65
2023-05-14T18:36:31.949Z,16.13
2023-05-14T18:39:00.209Z,18.73
2023-05-14T18:41:28.444Z,16.00
2023-05-14T18:43:58.029Z,17.60
2023-05-14T18:46:27.982Z,20.35
2023-05-14T18:48:57.391Z,21.17
2023-05-14T18:51:25.743Z,20.50
2023-05-14T18:53:53.964Z,22.13
2023-05-14T18:56:22.423Z,17.45
2023-05-14T18:58:50.640Z,18.88
2023-05-14T19:01:18.892Z,19.17
2023-05-14T19:03:48.536Z,20.42
2023-05-14T19:06:16.885Z,25.20
2023-05-14T19:08:45.076Z,19.30
2023-05-14T19:11:13.469Z,18.85
2023-05-14T19:13:41.604Z,18.48
2023-05-14T19:16:10.981Z,20.80
2023-05-14T19:18:39.662Z,21.05
2023-05-14T19:21:09.475Z,20.27
2023-05-14T19:23:37.743Z,19.23
2023-05-14T19:26:07.072Z,19.13
2023-05-14T19:28:35.485Z,20.67
2023-05-14T19:31:04.192Z,19.67
2023-05-14T19:33:32.468Z,19.08
2023-05-14T19:36:00.783Z,16.60
2023-05-14T19:38:30.704Z,18.15
2023-05-14T19:40:59.091Z,17.58
2023-05-14T19:43:28.080Z,22.75
2023-05-14T19:45:56.390Z,17.52
2023-05-14T19:48:24.601Z,17.80
2023-05-14T19:50:53.092Z,16.63
2023-05-14T19:53:21.341Z,13.77
2023-05-14T19:55:51.243Z,16.27
2023-05-14T19:58:19.551Z,15.32
2023-05-14T20:00:51.109Z,13.55
2023-05-14T20:03:19.613Z,14.70
2023-05-14T20:05:49.030Z,13.40
2023-05-14T20:08:19.058Z,13.32
2023-05-14T20:10:47.489Z,12.95
2023-05-14T20:13:17.277Z,14.23
2023-05-14T20:15:45.532Z,13.82
2023-05-14T20:18:13.947Z,14.15
2023-05-14T20:20:42.831Z,14.07
2023-05-14T20:23:10.994Z,15.25
2023-05-14T20:25:39.439Z,15.13
2023-05-14T20:28:07.705Z,14.10
2023-05-14T20:30:37.461Z,14.25
2023-05-14T20:33:06.708Z,15.82
2023-05-14T20:35:35.450Z,15.75
2023-05-14T20:38:04.513Z,16.65
2023-05-14T20:40:33.183Z,16.27
2023-05-14T20:43:01.869Z,17.98
2023-05-14T20:45:30.169Z,18.33
2023-05-14T20:47:59.969Z,18.00
2023-05-14T20:50:28.309Z,17.23
2023-05-14T20:52:56.825Z,16.73
2023-05-14T20:55:25.444Z,16.50
2023-05-14T20:57:53.928Z,16.77
2023-05-14T21:00:22.465Z,16.15
2023-05-14T21:02:50.809Z,16.45
2023-05-14T21:05:20.852Z,17.02
2023-05-14T21:07:49.137Z,18.95
2023-05-14T21:10:17.662Z,17.17
2023-05-14T21:12:45.916Z,17.33
2023-05-14T21:15:14.255Z,17.88
2023-05-14T21:17:42.484Z,16.40
2023-05-14T21:20:13.417Z,18.75
2023-05-14T21:22:43.053Z,17.30
2023-05-14T21:25:11.900Z,18.48
2023-05-14T21:27:40.698Z,18.08
2023-05-14T21:30:10.200Z,17.63
2023-05-14T21:32:38.508Z,18.85
2023-05-14T21:35:07.519Z,18.25
2023-05-14T21:37:35.768Z,17.30
2023-05-14T21:40:05.810Z,19.77
2023-05-14T21:42:34.056Z,17.25
2023-05-14T21:45:02.310Z,18.80
2023-05-14T21:47:32.830Z,19.13
2023-05-14T21:50:01.204Z,17.52
2023-05-14T21:52:29.420Z,18.13
2023-05-14T21:54:58.027Z,18.95
2023-05-14T21:57:28.627Z,18.65
2023-05-14T21:59:58.209Z,17.63
2023-05-14T22:02:26.562Z,18.65
2023-05-14T22:04:55.787Z,18.42
2023-05-14T22:07:24.540Z,18.17
2023-05-14T22:09:52.918Z,19.73
2023-05-14T22:12:21.201Z,19.52
2023-05-14T22:14:50.933Z,18.85
2023-05-14T22:17:19.174Z,19.60
2023-05-14T22:19:47.452Z,20.17
2023-05-14T22:22:15.678Z,20.05
2023-05-14T22:24:43.930Z,18.05
2023-05-14T22:27:12.116Z,18.25
2023-05-14T22:29:41.106Z,17.55
2023-05-14T22:32:10.653Z,18.35
2023-05-14T22:34:39.085Z,18.85
2023-05-14T22:37:07.271Z,18.02
2023-05-14T22:39:35.815Z,17.77
2023-05-14T22:42:04.010Z,17.33
2023-05-14T22:44:32.265Z,16.58
2023-05-14T22:47:00.575Z,18.55
2023-05-14T22:49:30.288Z,18.77
2023-05-14T22:51:58.497Z,17.27
2023-05-14T22:54:26.858Z,15.82
2023-05-14T22:56:55.328Z,15.80
2023-05-14T22:59:24.018Z,16.52
2023-05-14T23:01:52.360Z,21.33
2023-05-14T23:04:20.739Z,21.40
2023-05-14T23:06:50.442Z,22.33
2023-05-14T23:09:18.998Z,21.40
2023-05-14T23:11:47.270Z,20.50
2023-05-14T23:14:17.926Z,16.80
2023-05-14T23:16:46.737Z,15.13
2023-05-14T23:19:15.179Z,15.15
2023-05-14T23:21:43.585Z,15.05
2023-05-14T23:24:13.254Z,17.17
2023-05-14T23:26:41.399Z,15.15
2023-05-14T23:29:09.842Z,13.52
2023-05-14T23:31:38.779Z,14.82
2023-05-14T23:34:07.134Z,14.63
2023-05-14T23:36:35.450Z,12.50
2023-05-14T23:39:03.801Z,14.65
2023-05-14T23:41:33.501Z,15.27
2023-05-14T23:44:01.776Z,15.68
2023-05-14T23:46:30.351Z,15.70
2023-05-14T23:48:58.653Z,13.10
2023-05-14T23:51:28.018Z,13.98
2023-05-14T23:53:58.575Z,14.68
2023-05-14T23:56:29.185Z,14.07
2023-05-14T23:58:59.118Z,14.60
